Terminal Aerodrome Forecast
Issued by NWS Burlington, VT

Home | Current Version | Previous Version | Text Only | Print | Product List | Glossary On
Versions: 1 2 3 4 5 6 7 8 9 10 11 12 13 14 15 16 17 18 19
000
FTUS41 KBTV 231100
TAFBTV
TAF
KBTV 231129Z 2312/2412 VRB04KT P6SM BKN045 BKN070
     FM231500 34007KT P6SM BKN050
     FM240000 VRB02KT P6SM FEW050
     FM240600 VRB02KT 5SM BR SCT005=

USA.gov is the U.S. government's official web portal to all federal, state and local government web resources and services.